createdAt,value
2019-03-04T00:01:59.722Z,98558.90
2019-03-04T00:04:27.898Z,98533.91
2019-03-04T00:06:56.072Z,98537.87
2019-03-04T00:09:24.351Z,98527.77
2019-03-04T00:11:52.533Z,98520.84
2019-03-04T00:14:20.641Z,98523.83
2019-03-04T00:16:48.927Z,98533.98
2019-03-04T00:19:17.039Z,98535.23
2019-03-04T00:21:45.236Z,98541.83
2019-03-04T00:24:13.494Z,98543.62
2019-03-04T00:26:41.621Z,98540.86
2019-03-04T00:29:09.987Z,98551.88
2019-03-04T00:31:38.078Z,98559.57
2019-03-04T00:34:06.265Z,98577.21
2019-03-04T00:36:34.427Z,98559.44
2019-03-04T00:39:02.941Z,98574.14
2019-03-04T00:41:31.096Z,98564.98
2019-03-04T00:43:59.388Z,98554.13
2019-03-04T00:46:27.520Z,98568.41
2019-03-04T00:48:56.074Z,98558.13
2019-03-04T00:51:24.280Z,98564.91
2019-03-04T00:53:52.448Z,98561.48
2019-03-04T00:56:20.669Z,98573.72
2019-03-04T00:58:49.098Z,98555.39
2019-03-04T01:01:17.323Z,98554.69
2019-03-04T01:03:45.449Z,98564.27
2019-03-04T01:06:13.647Z,98537.13
2019-03-04T01:08:41.943Z,98542.15
2019-03-04T01:11:10.175Z,98535.63
2019-03-04T01:13:38.685Z,98531.38
2019-03-04T01:16:06.871Z,98520.95
2019-03-04T01:18:35.019Z,98517.09
2019-03-04T01:21:03.197Z,98513.62
2019-03-04T01:23:31.570Z,98503.55
2019-03-04T01:25:59.927Z,98496.30
2019-03-04T01:28:28.069Z,98487.52
2019-03-04T01:30:57.013Z,98471.08
2019-03-04T01:33:25.792Z,98453.31
2019-03-04T01:35:53.917Z,98449.08
2019-03-04T01:38:22.431Z,98454.53
2019-03-04T01:40:51.316Z,98453.75
2019-03-04T01:43:19.458Z,98428.72
2019-03-04T01:45:47.922Z,98428.06
2019-03-04T01:48:16.180Z,98431.28
2019-03-04T01:50:44.332Z,98413.52
2019-03-04T01:53:12.710Z,98413.20
2019-03-04T01:55:41.158Z,98414.64
2019-03-04T01:58:09.400Z,98408.16
2019-03-04T02:00:37.502Z,98401.25
2019-03-04T02:03:06.430Z,98387.95
2019-03-04T02:05:34.863Z,98396.66
2019-03-04T02:08:03.070Z,98384.83
2019-03-04T02:10:31.293Z,98367.30
2019-03-04T02:12:59.609Z,98364.20
2019-03-04T02:15:27.964Z,98354.44
2019-03-04T02:17:56.187Z,98357.93
2019-03-04T02:20:24.431Z,98348.88
2019-03-04T02:22:52.849Z,98353.15
2019-03-04T02:25:25.186Z,98350.42
2019-03-04T02:27:54.690Z,98336.95
2019-03-04T02:30:25.667Z,98343.38
2019-03-04T02:32:53.998Z,98353.42
2019-03-04T02:35:22.214Z,98337.66
2019-03-04T02:37:50.533Z,98343.33
2019-03-04T02:40:18.887Z,98341.59
2019-03-04T02:42:47.225Z,98337.84
2019-03-04T02:45:17.505Z,98327.06
2019-03-04T02:47:45.718Z,98327.41
2019-03-04T02:50:14.243Z,98307.01
2019-03-04T02:52:42.803Z,98299.95
2019-03-04T02:55:11.173Z,98297.59
2019-03-04T02:57:40.107Z,98274.74
2019-03-04T03:00:09.801Z,98254.33
2019-03-04T03:02:37.912Z,98242.28
2019-03-04T03:05:06.632Z,98255.01
2019-03-04T03:07:35.043Z,98255.06
2019-03-04T03:10:04.169Z,98252.06
2019-03-04T03:12:32.457Z,98239.27
2019-03-04T03:15:00.751Z,98204.53
2019-03-04T03:17:29.178Z,98210.64
2019-03-04T03:19:57.384Z,98203.66
2019-03-04T03:22:25.590Z,98202.89
2019-03-04T03:24:54.026Z,98169.16
2019-03-04T03:27:22.182Z,98168.99
2019-03-04T03:29:52.113Z,98165.94
2019-03-04T03:32:20.241Z,98157.80
2019-03-04T03:34:48.555Z,98179.22
2019-03-04T03:37:17.050Z,98189.92
2019-03-04T03:39:45.329Z,98168.38
2019-03-04T03:42:13.752Z,98169.72
2019-03-04T03:44:42.015Z,98159.50
2019-03-04T03:47:10.207Z,98148.21
2019-03-04T03:49:38.474Z,98143.80
2019-03-04T03:52:06.988Z,98146.34
2019-03-04T03:54:35.109Z,98146.09
2019-03-04T03:57:03.242Z,98140.08
2019-03-04T03:59:31.545Z,98136.03
2019-03-04T04:01:59.768Z,98144.55
2019-03-04T04:04:28.185Z,98138.20
2019-03-04T04:06:56.368Z,98136.48
2019-03-04T04:09:24.562Z,98138.34
2019-03-04T04:11:53.102Z,98140.11
2019-03-04T04:14:21.623Z,98120.05
2019-03-04T04:16:50.502Z,98120.91
2019-03-04T04:19:18.811Z,98115.41
2019-03-04T04:21:47.098Z,98102.75
2019-03-04T04:24:15.235Z,98088.97
2019-03-04T04:26:43.797Z,98071.72
2019-03-04T04:29:12.778Z,98068.42
2019-03-04T04:31:43.475Z,98070.19
2019-03-04T04:34:11.596Z,98058.41
2019-03-04T04:36:40.372Z,98031.68
2019-03-04T04:39:08.931Z,98030.39
2019-03-04T04:41:37.130Z,98025.98
2019-03-04T04:44:05.409Z,98003.81
2019-03-04T04:47:11.272Z,97989.18
2019-03-04T04:49:39.569Z,97986.88
2019-03-04T04:54:43.236Z,97983.33
2019-03-04T04:57:11.497Z,97965.05
2019-03-04T04:59:40.022Z,97980.50
2019-03-04T05:02:08.342Z,97961.47
2019-03-04T05:04:36.535Z,97937.37
2019-03-04T05:07:04.765Z,97912.27
2019-03-04T05:09:32.911Z,97938.34
2019-03-04T05:12:01.019Z,97932.74
2019-03-04T05:14:29.181Z,97930.70
2019-03-04T05:16:57.762Z,97912.20
2019-03-04T05:19:26.189Z,97891.72
2019-03-04T05:21:54.377Z,97879.59
2019-03-04T05:24:22.485Z,97858.42
2019-03-04T05:26:50.865Z,97847.33
2019-03-04T05:29:19.097Z,97815.64
2019-03-04T05:31:47.444Z,97807.65
2019-03-04T05:34:15.740Z,97816.23
2019-03-04T05:36:43.964Z,97816.13
2019-03-04T05:39:12.107Z,97809.95
2019-03-04T05:41:40.354Z,97824.36
2019-03-04T05:44:08.757Z,97822.58
2019-03-04T05:46:37.028Z,97825.73
2019-03-04T05:49:05.146Z,97803.86
2019-03-04T05:51:33.593Z,97801.42
2019-03-04T05:54:01.816Z,97791.11
2019-03-04T05:56:30.058Z,97789.98
2019-03-04T05:58:58.256Z,97815.88
2019-03-04T06:01:28.902Z,97783.83
2019-03-04T06:03:59.444Z,97779.36
2019-03-04T06:06:45.472Z,97775.66
2019-03-04T06:09:13.767Z,97763.05
2019-03-04T06:11:42.891Z,97766.98
2019-03-04T06:14:11.089Z,97759.64
2019-03-04T06:16:46.993Z,97761.50
2019-03-04T06:19:09.827Z,97773.54
2019-03-04T06:21:38.135Z,97762.84
2019-03-04T06:24:06.482Z,97758.33
2019-03-04T06:26:34.695Z,97755.24
2019-03-04T06:29:03.016Z,97750.27
2019-03-04T06:31:31.641Z,97746.19
2019-03-04T06:36:48.930Z,97734.88
2019-03-04T06:39:17.342Z,97727.94
2019-03-04T06:41:45.656Z,97731.27
2019-03-04T06:44:14.009Z,97718.52
2019-03-04T06:46:42.230Z,97729.37
2019-03-04T06:49:10.413Z,97725.74
2019-03-04T06:51:43.343Z,97719.55
2019-03-04T06:54:17.204Z,97703.59
2019-03-04T06:56:50.582Z,97699.81
2019-03-04T06:59:51.646Z,97699.44
2019-03-04T07:02:19.830Z,97696.06
2019-03-04T07:05:44.144Z,97709.80
2019-03-04T07:08:48.946Z,97692.98
2019-03-04T07:11:17.243Z,97683.37
2019-03-04T07:13:45.887Z,97676.76
2019-03-04T07:16:14.217Z,97663.78
2019-03-04T07:18:42.486Z,97665.98
2019-03-04T07:21:10.934Z,97635.16
2019-03-04T07:23:39.100Z,97646.21
2019-03-04T07:26:07.261Z,97640.73
2019-03-04T07:28:35.581Z,97626.52
2019-03-04T07:31:04.177Z,97620.77
2019-03-04T07:33:32.323Z,97612.70
2019-03-04T07:36:00.419Z,97611.47
2019-03-04T07:38:44.824Z,97611.45
2019-03-04T07:41:12.950Z,97597.53
2019-03-04T07:43:41.059Z,97586.44
2019-03-04T07:46:09.210Z,97587.95
2019-03-04T07:48:37.671Z,97579.77
2019-03-04T07:51:15.634Z,97587.97
2019-03-04T07:53:46.719Z,97589.77
2019-03-04T07:56:13.790Z,97647.16
2019-03-04T07:58:41.914Z,97701.80
2019-03-04T08:01:10.206Z,97805.95
2019-03-04T08:03:38.313Z,97824.51
2019-03-04T08:06:06.844Z,97848.94
2019-03-04T08:08:37.124Z,97840.75
2019-03-04T08:11:52.374Z,97829.26
2019-03-04T08:14:20.644Z,97853.36
2019-03-04T08:16:48.838Z,97847.61
2019-03-04T08:19:17.164Z,97849.14
2019-03-04T08:21:45.683Z,97872.08
2019-03-04T08:24:13.992Z,97888.02
2019-03-04T08:26:42.466Z,97902.84
2019-03-04T08:29:31.743Z,97892.11
2019-03-04T08:32:00.023Z,97820.67
2019-03-04T08:34:31.375Z,97799.47
2019-03-04T08:36:58.515Z,97822.46
2019-03-04T08:39:26.936Z,97808.77
2019-03-04T08:41:55.235Z,97786.33
2019-03-04T08:44:23.413Z,97796.18
2019-03-04T08:46:51.602Z,97804.16
2019-03-04T08:49:19.861Z,97819.11
2019-03-04T08:51:48.091Z,97803.27
2019-03-04T08:54:16.212Z,97786.78
2019-03-04T08:56:44.647Z,97780.64
2019-03-04T08:59:13.203Z,97776.81
2019-03-04T09:01:41.525Z,97785.66
2019-03-04T09:04:10.010Z,97782.59
2019-03-04T09:06:38.289Z,97780.70
2019-03-04T09:09:08.772Z,97788.40
2019-03-04T09:11:37.695Z,97785.06
2019-03-04T09:14:05.848Z,97798.16
2019-03-04T09:16:34.214Z,97785.78
2019-03-04T09:19:02.666Z,97764.80
2019-03-04T09:21:31.016Z,97778.77
2019-03-04T09:23:59.168Z,97774.66
2019-03-04T09:26:27.443Z,97771.09
2019-03-04T09:28:55.697Z,97768.27
2019-03-04T09:31:23.987Z,97775.03
2019-03-04T09:33:52.266Z,97762.25
2019-03-04T09:36:20.465Z,97766.58
2019-03-04T09:38:48.680Z,97741.44
2019-03-04T09:41:16.829Z,97752.42
2019-03-04T09:43:45.062Z,97757.98
2019-03-04T09:46:13.262Z,97742.67
2019-03-04T09:48:41.708Z,97739.16
2019-03-04T09:51:09.940Z,97726.30
2019-03-04T09:53:39.785Z,97730.17
2019-03-04T09:56:08.123Z,97746.23
2019-03-04T09:58:36.713Z,97747.46
2019-03-04T10:01:21.507Z,97746.23
2019-03-04T10:04:30.472Z,97755.80
2019-03-04T10:07:23.635Z,97747.03
2019-03-04T10:10:29.897Z,97744.84
2019-03-04T10:13:27.775Z,97757.51
2019-03-04T10:16:25.232Z,97746.80
2019-03-04T10:19:34.491Z,97753.59
2019-03-04T10:22:20.591Z,97759.67
2019-03-04T10:25:10.436Z,97757.59
2019-03-04T10:28:40.783Z,97768.05
2019-03-04T10:31:29.831Z,97758.58
2019-03-04T10:34:32.092Z,97727.13
2019-03-04T10:37:27.019Z,97764.66
2019-03-04T10:40:42.143Z,97770.63
2019-03-04T10:43:40.169Z,97772.80
2019-03-04T10:46:31.547Z,97771.84
2019-03-04T10:49:01.431Z,97758.09
2019-03-04T10:51:29.592Z,97761.52
2019-03-04T10:53:58.130Z,97752.27
2019-03-04T10:56:26.421Z,97731.57
2019-03-04T10:58:54.620Z,97744.67
2019-03-04T11:01:30.175Z,97756.16
2019-03-04T11:03:52.780Z,97731.80
2019-03-04T11:06:21.087Z,97740.34
2019-03-04T11:08:49.240Z,97750.09
2019-03-04T11:11:17.464Z,97755.67
2019-03-04T11:13:45.602Z,97745.80
2019-03-04T11:16:13.889Z,97749.95
2019-03-04T11:18:42.047Z,97763.34
2019-03-04T11:21:11.444Z,97754.56
2019-03-04T11:23:39.765Z,97747.95
2019-03-04T11:26:07.972Z,97779.71
2019-03-04T11:28:36.221Z,97778.44
2019-03-04T11:31:04.641Z,97768.87
2019-03-04T11:33:32.974Z,97772.98
2019-03-04T11:36:01.447Z,97791.44
2019-03-04T11:38:40.647Z,97798.41
2019-03-04T11:41:10.167Z,97786.75
2019-03-04T11:43:38.809Z,97776.45
2019-03-04T11:46:07.044Z,97793.64
2019-03-04T11:48:35.260Z,97768.37
2019-03-04T11:51:03.379Z,97773.67
2019-03-04T11:53:31.512Z,97763.66
2019-03-04T11:55:59.663Z,97761.39
2019-03-04T11:58:27.810Z,97755.91
2019-03-04T12:01:01.104Z,97741.56
2019-03-04T12:03:30.777Z,97744.22
2019-03-04T12:05:59.094Z,97740.34
2019-03-04T12:08:27.242Z,97749.95
2019-03-04T12:10:55.396Z,97751.17
2019-03-04T12:13:23.974Z,97741.42
2019-03-04T12:15:52.120Z,97741.02
2019-03-04T12:18:20.372Z,97729.98
2019-03-04T12:20:48.729Z,97720.98
2019-03-04T12:23:17.022Z,97721.23
2019-03-04T12:25:45.130Z,97709.31
2019-03-04T12:28:13.387Z,97721.23
2019-03-04T12:30:41.653Z,97709.89
2019-03-04T12:33:10.611Z,97717.71
2019-03-04T12:35:38.773Z,97708.17
2019-03-04T12:38:06.968Z,97720.14
2019-03-04T12:40:35.181Z,97713.74
2019-03-04T12:43:03.411Z,97722.28
2019-03-04T12:45:34.668Z,97724.50
2019-03-04T12:48:01.725Z,97727.91
2019-03-04T12:50:30.159Z,97735.77
2019-03-04T12:52:58.826Z,97756.08
2019-03-04T12:55:27.100Z,97752.66
2019-03-04T12:57:55.449Z,97785.13
2019-03-04T13:00:23.771Z,97819.98
2019-03-04T13:02:57.434Z,97856.88
2019-03-04T13:05:22.136Z,97879.00
2019-03-04T13:07:50.512Z,97882.36
2019-03-04T13:10:19.306Z,97864.93
2019-03-04T13:12:47.714Z,97872.56
2019-03-04T13:15:18.401Z,97884.26
2019-03-04T13:17:46.680Z,97894.90
2019-03-04T13:20:15.600Z,97863.11
2019-03-04T13:22:44.089Z,97864.77
2019-03-04T13:25:12.296Z,97850.45
2019-03-04T13:27:40.760Z,97858.52
2019-03-04T13:30:12.157Z,97855.44
2019-03-04T13:32:40.314Z,97864.75
2019-03-04T13:35:10.244Z,97871.77
2019-03-04T13:37:38.566Z,97878.12
2019-03-04T13:40:07.857Z,97889.16
2019-03-04T13:42:36.204Z,97905.25
2019-03-04T13:45:05.206Z,97917.03
2019-03-04T13:47:33.639Z,97925.90
2019-03-04T13:50:01.812Z,97931.96
2019-03-04T13:52:29.934Z,97936.23
2019-03-04T13:54:58.543Z,97931.50
2019-03-04T13:57:26.679Z,97932.42
2019-03-04T13:59:54.935Z,97945.78
2019-03-04T14:02:23.139Z,97942.14
2019-03-04T14:04:51.497Z,97942.63
2019-03-04T14:07:19.895Z,97969.14
2019-03-04T14:09:48.174Z,97955.47
2019-03-04T14:12:16.341Z,97972.00
2019-03-04T14:14:44.504Z,97972.39
2019-03-04T14:17:12.748Z,97982.06
2019-03-04T14:19:41.015Z,97986.39
2019-03-04T14:22:09.233Z,97992.58
2019-03-04T14:24:37.466Z,97991.22
2019-03-04T14:27:05.940Z,97989.31
2019-03-04T14:29:34.099Z,97988.68
2019-03-04T14:32:02.500Z,97988.56
2019-03-04T14:34:30.629Z,97997.23
2019-03-04T14:36:58.862Z,98003.81
2019-03-04T14:39:27.055Z,97999.22
2019-03-04T14:41:55.729Z,98006.61
2019-03-04T14:44:23.892Z,98020.98
2019-03-04T14:46:52.305Z,98006.16
2019-03-04T14:51:54.486Z,98026.28
2019-03-04T14:54:22.902Z,98033.17
2019-03-04T14:56:51.151Z,98036.98
2019-03-04T14:59:19.564Z,98052.32
2019-03-04T15:01:47.781Z,98054.86
2019-03-04T15:04:16.129Z,98052.61
2019-03-04T15:06:44.715Z,98046.41
2019-03-04T15:12:03.700Z,98056.19
2019-03-04T15:14:32.046Z,98046.04
2019-03-04T15:17:03.617Z,98055.09
2019-03-04T15:19:29.970Z,98073.48
2019-03-04T15:21:58.259Z,98086.05
2019-03-04T15:24:27.289Z,98082.13
2019-03-04T15:26:55.953Z,98097.02
2019-03-04T15:29:44.775Z,98108.41
2019-03-04T15:32:13.698Z,98102.78
2019-03-04T15:34:42.254Z,98118.47
2019-03-04T15:37:10.777Z,98129.12
2019-03-04T15:39:39.007Z,98121.91
2019-03-04T15:42:07.212Z,98123.16
2019-03-04T15:44:36.066Z,98125.50
2019-03-04T15:47:04.610Z,98135.32
2019-03-04T15:49:32.967Z,98142.12
2019-03-04T15:52:01.330Z,98133.22
2019-03-04T15:54:30.622Z,98142.06
2019-03-04T15:57:03.372Z,98154.18
2019-03-04T15:59:31.887Z,98153.73
2019-03-04T16:02:08.210Z,98158.23
2019-03-04T16:04:36.633Z,98162.55
2019-03-04T16:07:05.136Z,98169.55
2019-03-04T16:09:33.836Z,98168.85
2019-03-04T16:12:02.194Z,98168.45
2019-03-04T16:14:31.058Z,98198.62
2019-03-04T16:17:00.041Z,98177.88
2019-03-04T16:19:28.693Z,98190.48
2019-03-04T16:21:57.018Z,98181.31
2019-03-04T16:24:32.814Z,98190.16
2019-03-04T16:27:11.391Z,98194.63
2019-03-04T16:29:39.981Z,98195.66
2019-03-04T16:32:08.459Z,98194.63
2019-03-04T16:34:37.739Z,98213.67
2019-03-04T16:37:07.671Z,98210.90
2019-03-04T16:39:36.305Z,98227.32
2019-03-04T16:42:06.771Z,98230.34
2019-03-04T16:44:35.861Z,98230.57
2019-03-04T16:47:04.253Z,98247.11
2019-03-04T16:49:32.573Z,98242.67
2019-03-04T16:52:01.857Z,98267.96
2019-03-04T16:54:30.217Z,98263.45
2019-03-04T16:56:58.693Z,98255.69
2019-03-04T16:59:26.921Z,98270.66
2019-03-04T17:01:55.338Z,98268.98
2019-03-04T17:04:23.677Z,98283.38
2019-03-04T17:06:52.024Z,98281.92
2019-03-04T17:09:20.805Z,98287.02
2019-03-04T17:11:49.326Z,98296.34
2019-03-04T17:14:17.529Z,98301.53
2019-03-04T17:16:45.800Z,98314.01
2019-03-04T17:19:14.132Z,98314.96
2019-03-04T17:21:42.272Z,98324.83
2019-03-04T17:24:10.968Z,98333.66
2019-03-04T17:26:39.223Z,98336.12
2019-03-04T17:29:08.009Z,98350.52
2019-03-04T17:31:36.398Z,98353.83
2019-03-04T17:34:04.674Z,98369.18
2019-03-04T17:36:32.896Z,98365.33
2019-03-04T17:39:21.531Z,98368.39
2019-03-04T17:41:50.990Z,98369.48
2019-03-04T17:44:23.751Z,98374.91
2019-03-04T17:46:52.342Z,98382.95
2019-03-04T17:49:21.086Z,98393.11
2019-03-04T17:51:49.942Z,98399.39
2019-03-04T17:54:18.309Z,98405.95
2019-03-04T17:56:46.993Z,98417.92
2019-03-04T17:59:15.550Z,98420.81
2019-03-04T18:01:43.933Z,98426.45
2019-03-04T18:04:12.471Z,98413.38
2019-03-04T18:06:41.424Z,98429.19
2019-03-04T18:09:09.879Z,98440.68
2019-03-04T18:11:38.181Z,98437.86
2019-03-04T18:14:07.400Z,98447.16
2019-03-04T18:16:36.973Z,98457.30
2019-03-04T18:19:05.955Z,98452.07
2019-03-04T18:21:35.300Z,98467.80
2019-03-04T18:24:04.114Z,98474.26
2019-03-04T18:26:38.287Z,98470.91
2019-03-04T18:29:28.491Z,98484.10
2019-03-04T18:32:26.287Z,98491.54
2019-03-04T18:35:35.683Z,98470.11
2019-03-04T18:38:36.842Z,98487.08
2019-03-04T18:41:18.305Z,98491.82
2019-03-04T18:44:27.738Z,98512.92
2019-03-04T18:47:31.920Z,98509.03
2019-03-04T18:50:01.206Z,98516.59
2019-03-04T18:52:30.857Z,98527.66
2019-03-04T18:54:59.539Z,98518.45
2019-03-04T18:57:28.258Z,98523.36
2019-03-04T18:59:57.683Z,98520.25
2019-03-04T19:02:27.026Z,98531.16
2019-03-04T19:04:56.045Z,98536.21
2019-03-04T19:07:25.869Z,98530.67
2019-03-04T19:10:07.807Z,98543.55
2019-03-04T19:12:36.989Z,98537.37
2019-03-04T19:15:07.089Z,98551.50
2019-03-04T19:17:35.981Z,98543.38
2019-03-04T19:20:05.191Z,98551.03
2019-03-04T19:22:34.784Z,98559.86
2019-03-04T19:25:04.265Z,98551.88
2019-03-04T19:27:33.080Z,98557.26
2019-03-04T19:30:01.589Z,98560.42
2019-03-04T19:32:30.961Z,98569.30
2019-03-04T19:35:00.014Z,98562.19
2019-03-04T19:37:28.826Z,98564.80
2019-03-04T19:39:59.653Z,98572.00
2019-03-04T19:42:29.256Z,98572.06
2019-03-04T19:44:59.164Z,98572.20
2019-03-04T19:47:29.239Z,98588.59
2019-03-04T19:49:59.185Z,98580.50
2019-03-04T19:52:29.030Z,98590.06
2019-03-04T19:54:58.923Z,98597.00
2019-03-04T19:57:28.408Z,98593.56
2019-03-04T19:59:58.340Z,98594.36
2019-03-04T20:02:28.302Z,98589.73
2019-03-04T20:04:57.647Z,98593.31
2019-03-04T20:07:26.361Z,98606.72
2019-03-04T20:09:56.366Z,98604.98
2019-03-04T20:12:27.973Z,98609.19
2019-03-04T20:14:56.834Z,98616.39
2019-03-04T20:17:26.016Z,98613.05
2019-03-04T20:19:55.329Z,98619.51
2019-03-04T20:22:24.711Z,98617.14
2019-03-04T20:24:53.886Z,98619.32
2019-03-04T20:27:22.910Z,98619.36
2019-03-04T20:29:51.659Z,98621.58
2019-03-04T20:32:21.100Z,98631.26
2019-03-04T20:34:50.139Z,98632.41
2019-03-04T20:37:19.629Z,98636.71
2019-03-04T20:39:49.087Z,98631.73
2019-03-04T20:42:18.226Z,98624.09
2019-03-04T20:44:46.793Z,98639.08
2019-03-04T20:47:15.654Z,98638.05
2019-03-04T20:49:44.278Z,98648.04
2019-03-04T20:52:14.259Z,98655.15
2019-03-04T20:54:43.386Z,98656.69
2019-03-04T20:57:12.371Z,98658.63
2019-03-04T20:59:41.413Z,98664.97
2019-03-04T21:02:10.734Z,98670.84
2019-03-04T21:04:39.752Z,98660.86
2019-03-04T21:07:08.064Z,98661.77
2019-03-04T21:09:36.739Z,98663.12
2019-03-04T21:12:05.920Z,98665.25
2019-03-04T21:14:34.760Z,98673.58
2019-03-04T21:17:03.412Z,98678.26
2019-03-04T21:19:31.764Z,98674.95
2019-03-04T21:22:00.283Z,98683.57
2019-03-04T21:24:28.729Z,98677.47
2019-03-04T21:26:57.753Z,98681.53
2019-03-04T21:29:57.144Z,98683.17
2019-03-04T21:32:49.744Z,98678.92
2019-03-04T21:35:52.889Z,98687.70
2019-03-04T21:38:24.053Z,98686.25
2019-03-04T21:41:25.504Z,98691.81
2019-03-04T21:44:46.743Z,98697.06
2019-03-04T21:47:28.713Z,98711.82
2019-03-04T21:49:57.497Z,98705.91
2019-03-04T21:52:50.675Z,98700.98
2019-03-04T21:55:43.425Z,98715.00
2019-03-04T21:58:11.885Z,98718.13
2019-03-04T22:00:41.946Z,98725.34
2019-03-04T22:03:30.793Z,98717.73
2019-03-04T22:05:59.526Z,98708.89
2019-03-04T22:08:27.992Z,98715.54
2019-03-04T22:10:57.979Z,98715.34
2019-03-04T22:13:26.194Z,98711.22
2019-03-04T22:15:54.562Z,98708.09
2019-03-04T22:18:22.839Z,98713.66
2019-03-04T22:20:51.323Z,98713.60
2019-03-04T22:23:19.672Z,98713.46
2019-03-04T22:25:47.861Z,98714.98
2019-03-04T22:28:16.104Z,98702.23
2019-03-04T22:30:44.268Z,98709.86
2019-03-04T22:33:12.975Z,98702.78
2019-03-04T22:35:41.223Z,98714.55
2019-03-04T22:38:09.433Z,98715.12
2019-03-04T22:40:37.681Z,98712.55
2019-03-04T22:43:05.953Z,98712.93
2019-03-04T22:45:34.238Z,98713.55
2019-03-04T22:48:02.369Z,98716.45
2019-03-04T22:50:30.761Z,98709.86
2019-03-04T22:52:59.027Z,98718.66
2019-03-04T22:55:32.095Z,98712.53
2019-03-04T22:58:00.354Z,98702.98
2019-03-04T23:01:19.503Z,98717.50
2019-03-04T23:03:47.937Z,98716.65
2019-03-04T23:06:19.776Z,98722.63
2019-03-04T23:08:48.108Z,98712.67
2019-03-04T23:11:16.358Z,98716.96
2019-03-04T23:14:05.909Z,98710.84
2019-03-04T23:16:34.416Z,98709.84
2019-03-04T23:19:02.585Z,98719.98
2019-03-04T23:21:30.871Z,98727.08
2019-03-04T23:23:59.004Z,98727.41
2019-03-04T23:26:27.172Z,98721.56
2019-03-04T23:28:55.432Z,98723.84
2019-03-04T23:31:23.677Z,98736.13
2019-03-04T23:33:51.855Z,98716.26
2019-03-04T23:36:19.963Z,98734.98
2019-03-04T23:38:48.269Z,98734.61
2019-03-04T23:41:16.408Z,98730.19
2019-03-04T23:43:44.638Z,98734.98
2019-03-04T23:46:12.992Z,98739.06
2019-03-04T23:48:41.124Z,98734.09
2019-03-04T23:51:09.401Z,98726.25
2019-03-04T23:53:37.551Z,98721.66
2019-03-04T23:56:05.663Z,98741.31
2019-03-04T23:58:33.885Z,98750.69
